sensor_id;sensor_type;location;lat;lon;timestamp;P1;durP1;ratioP1;P2;durP2;ratioP2
14377;SDS011;7272;53.668;9.578;2023-04-08T00:00:27;11.53;;;9.67;;
14377;SDS011;7272;53.668;9.578;2023-04-08T00:03:29;8.97;;;8.17;;
14377;SDS011;7272;53.668;9.578;2023-04-08T00:06:31;9.93;;;8.93;;
14377;SDS011;7272;53.668;9.578;2023-04-08T00:09:34;10.23;;;9.17;;
14377;SDS011;7272;53.668;9.578;2023-04-08T00:12:36;9.90;;;8.77;;
14377;SDS011;7272;53.668;9.578;2023-04-08T00:15:39;10.33;;;9.33;;
14377;SDS011;7272;53.668;9.578;2023-04-08T00:18:41;12.57;;;11.38;;
14377;SDS011;7272;53.668;9.578;2023-04-08T00:21:49;11.80;;;10.60;;
14377;SDS011;7272;53.668;9.578;2023-04-08T00:24:53;10.67;;;9.00;;
14377;SDS011;7272;53.668;9.578;2023-04-08T00:27:55;9.93;;;8.57;;
14377;SDS011;7272;53.668;9.578;2023-04-08T00:30:56;10.80;;;9.50;;
14377;SDS011;7272;53.668;9.578;2023-04-08T00:33:58;9.63;;;8.53;;
14377;SDS011;7272;53.668;9.578;2023-04-08T00:37:00;9.50;;;8.57;;
14377;SDS011;7272;53.668;9.578;2023-04-08T00:40:04;8.47;;;7.57;;
14377;SDS011;7272;53.668;9.578;2023-04-08T00:43:07;9.30;;;8.37;;
14377;SDS011;7272;53.668;9.578;2023-04-08T00:46:09;9.17;;;7.93;;
14377;SDS011;7272;53.668;9.578;2023-04-08T00:49:11;8.87;;;8.03;;
14377;SDS011;7272;53.668;9.578;2023-04-08T00:52:13;9.87;;;8.87;;
14377;SDS011;7272;53.668;9.578;2023-04-08T00:55:17;10.83;;;9.23;;
14377;SDS011;7272;53.668;9.578;2023-04-08T00:58:19;9.83;;;8.83;;
14377;SDS011;7272;53.668;9.578;2023-04-08T01:01:21;9.83;;;8.80;;
14377;SDS011;7272;53.668;9.578;2023-04-08T01:04:35;10.90;;;9.57;;
14377;SDS011;7272;53.668;9.578;2023-04-08T01:07:44;11.00;;;9.53;;
14377;SDS011;7272;53.668;9.578;2023-04-08T01:10:50;12.60;;;11.50;;
14377;SDS011;7272;53.668;9.578;2023-04-08T01:13:56;12.82;;;11.52;;
14377;SDS011;7272;53.668;9.578;2023-04-08T01:16:59;11.63;;;10.50;;
14377;SDS011;7272;53.668;9.578;2023-04-08T01:20:03;9.53;;;8.63;;
14377;SDS011;7272;53.668;9.578;2023-04-08T01:23:10;10.43;;;9.33;;
14377;SDS011;7272;53.668;9.578;2023-04-08T01:26:21;10.33;;;9.23;;
14377;SDS011;7272;53.668;9.578;2023-04-08T01:29:25;10.37;;;9.33;;
14377;SDS011;7272;53.668;9.578;2023-04-08T01:32:30;12.03;;;10.37;;
14377;SDS011;7272;53.668;9.578;2023-04-08T01:35:34;10.70;;;9.70;;
14377;SDS011;7272;53.668;9.578;2023-04-08T01:38:37;11.50;;;10.30;;
14377;SDS011;7272;53.668;9.578;2023-04-08T01:41:41;11.47;;;10.23;;
14377;SDS011;7272;53.668;9.578;2023-04-08T01:44:43;10.47;;;9.50;;
14377;SDS011;7272;53.668;9.578;2023-04-08T01:47:45;12.53;;;11.20;;
14377;SDS011;7272;53.668;9.578;2023-04-08T01:50:51;10.80;;;9.53;;
14377;SDS011;7272;53.668;9.578;2023-04-08T01:53:54;10.53;;;9.60;;
14377;SDS011;7272;53.668;9.578;2023-04-08T01:56:58;12.20;;;9.73;;
14377;SDS011;7272;53.668;9.578;2023-04-08T02:00:04;10.67;;;9.67;;
14377;SDS011;7272;53.668;9.578;2023-04-08T02:03:21;13.17;;;11.77;;
14377;SDS011;7272;53.668;9.578;2023-04-08T02:06:25;10.43;;;9.07;;
14377;SDS011;7272;53.668;9.578;2023-04-08T02:09:28;11.65;;;10.45;;
14377;SDS011;7272;53.668;9.578;2023-04-08T02:12:32;11.70;;;10.50;;
14377;SDS011;7272;53.668;9.578;2023-04-08T02:15:37;13.73;;;11.00;;
14377;SDS011;7272;53.668;9.578;2023-04-08T02:18:42;13.37;;;11.70;;
14377;SDS011;7272;53.668;9.578;2023-04-08T02:21:47;13.57;;;12.17;;
14377;SDS011;7272;53.668;9.578;2023-04-08T02:24:52;11.53;;;10.33;;
14377;SDS011;7272;53.668;9.578;2023-04-08T02:27:56;13.63;;;11.63;;
14377;SDS011;7272;53.668;9.578;2023-04-08T02:31:00;12.73;;;11.43;;
14377;SDS011;7272;53.668;9.578;2023-04-08T02:34:03;14.80;;;13.20;;
14377;SDS011;7272;53.668;9.578;2023-04-08T02:37:08;15.50;;;13.90;;
14377;SDS011;7272;53.668;9.578;2023-04-08T02:40:24;19.03;;;15.00;;
14377;SDS011;7272;53.668;9.578;2023-04-08T02:43:28;18.67;;;15.60;;
14377;SDS011;7272;53.668;9.578;2023-04-08T02:46:32;16.83;;;14.10;;
14377;SDS011;7272;53.668;9.578;2023-04-08T02:49:36;18.27;;;16.33;;
14377;SDS011;7272;53.668;9.578;2023-04-08T02:52:38;16.90;;;15.20;;
14377;SDS011;7272;53.668;9.578;2023-04-08T02:55:40;16.37;;;14.67;;
14377;SDS011;7272;53.668;9.578;2023-04-08T02:58:43;16.87;;;15.07;;
14377;SDS011;7272;53.668;9.578;2023-04-08T03:01:45;15.87;;;14.17;;
14377;SDS011;7272;53.668;9.578;2023-04-08T03:04:47;15.60;;;14.00;;
14377;SDS011;7272;53.668;9.578;2023-04-08T03:07:49;16.27;;;14.77;;
14377;SDS011;7272;53.668;9.578;2023-04-08T03:10:51;15.53;;;14.13;;
14377;SDS011;7272;53.668;9.578;2023-04-08T03:13:54;14.67;;;13.17;;
14377;SDS011;7272;53.668;9.578;2023-04-08T03:16:56;15.30;;;13.70;;
14377;SDS011;7272;53.668;9.578;2023-04-08T03:19:58;15.17;;;12.87;;
14377;SDS011;7272;53.668;9.578;2023-04-08T03:23:00;12.77;;;11.17;;
14377;SDS011;7272;53.668;9.578;2023-04-08T03:26:02;12.07;;;10.87;;
14377;SDS011;7272;53.668;9.578;2023-04-08T03:29:05;12.00;;;10.87;;
14377;SDS011;7272;53.668;9.578;2023-04-08T03:32:09;16.30;;;14.60;;
14377;SDS011;7272;53.668;9.578;2023-04-08T03:35:11;14.83;;;13.27;;
14377;SDS011;7272;53.668;9.578;2023-04-08T03:38:13;14.03;;;12.63;;
14377;SDS011;7272;53.668;9.578;2023-04-08T03:41:15;13.10;;;11.80;;
14377;SDS011;7272;53.668;9.578;2023-04-08T03:44:18;12.70;;;11.50;;
14377;SDS011;7272;53.668;9.578;2023-04-08T03:47:20;13.57;;;12.10;;
14377;SDS011;7272;53.668;9.578;2023-04-08T03:50:22;12.30;;;11.20;;
14377;SDS011;7272;53.668;9.578;2023-04-08T03:53:24;12.73;;;10.57;;
14377;SDS011;7272;53.668;9.578;2023-04-08T03:56:28;13.90;;;12.53;;
14377;SDS011;7272;53.668;9.578;2023-04-08T03:59:31;11.77;;;10.67;;
14377;SDS011;7272;53.668;9.578;2023-04-08T04:02:35;11.93;;;10.80;;
14377;SDS011;7272;53.668;9.578;2023-04-08T04:05:37;12.87;;;11.67;;
14377;SDS011;7272;53.668;9.578;2023-04-08T04:08:39;11.73;;;10.63;;
14377;SDS011;7272;53.668;9.578;2023-04-08T04:11:41;11.77;;;10.60;;
14377;SDS011;7272;53.668;9.578;2023-04-08T04:14:44;14.90;;;13.60;;
14377;SDS011;7272;53.668;9.578;2023-04-08T04:17:46;14.23;;;12.60;;
14377;SDS011;7272;53.668;9.578;2023-04-08T04:20:49;14.33;;;12.83;;
14377;SDS011;7272;53.668;9.578;2023-04-08T04:23:51;13.47;;;12.23;;
14377;SDS011;7272;53.668;9.578;2023-04-08T04:26:53;15.13;;;13.57;;
14377;SDS011;7272;53.668;9.578;2023-04-08T04:29:57;15.77;;;14.27;;
14377;SDS011;7272;53.668;9.578;2023-04-08T04:32:58;15.53;;;13.93;;
14377;SDS011;7272;53.668;9.578;2023-04-08T04:36:00;14.57;;;13.00;;
14377;SDS011;7272;53.668;9.578;2023-04-08T04:39:02;13.47;;;12.07;;
14377;SDS011;7272;53.668;9.578;2023-04-08T04:42:04;16.37;;;14.67;;
14377;SDS011;7272;53.668;9.578;2023-04-08T04:45:08;15.50;;;13.90;;
14377;SDS011;7272;53.668;9.578;2023-04-08T04:48:11;18.53;;;15.60;;
14377;SDS011;7272;53.668;9.578;2023-04-08T04:51:13;19.43;;;17.43;;
14377;SDS011;7272;53.668;9.578;2023-04-08T04:54:15;16.63;;;14.87;;
14377;SDS011;7272;53.668;9.578;2023-04-08T04:57:17;16.47;;;14.77;;
14377;SDS011;7272;53.668;9.578;2023-04-08T05:00:20;17.97;;;16.17;;
14377;SDS011;7272;53.668;9.578;2023-04-08T05:03:22;19.60;;;16.23;;
14377;SDS011;7272;53.668;9.578;2023-04-08T05:06:24;16.07;;;14.57;;
14377;SDS011;7272;53.668;9.578;2023-04-08T05:09:27;21.20;;;19.00;;
14377;SDS011;7272;53.668;9.578;2023-04-08T05:12:29;19.30;;;17.07;;
14377;SDS011;7272;53.668;9.578;2023-04-08T05:15:33;16.37;;;14.67;;
14377;SDS011;7272;53.668;9.578;2023-04-08T05:18:35;18.07;;;16.20;;
14377;SDS011;7272;53.668;9.578;2023-04-08T05:21:37;20.52;;;18.63;;
14377;SDS011;7272;53.668;9.578;2023-04-08T05:24:39;19.33;;;17.52;;
14377;SDS011;7272;53.668;9.578;2023-04-08T05:27:41;18.27;;;14.43;;
14377;SDS011;7272;53.668;9.578;2023-04-08T05:30:48;15.73;;;14.13;;
14377;SDS011;7272;53.668;9.578;2023-04-08T05:33:51;15.23;;;13.63;;
14377;SDS011;7272;53.668;9.578;2023-04-08T05:36:53;15.00;;;13.43;;
14377;SDS011;7272;53.668;9.578;2023-04-08T05:39:55;17.10;;;14.40;;
14377;SDS011;7272;53.668;9.578;2023-04-08T05:42:57;17.23;;;13.33;;
14377;SDS011;7272;53.668;9.578;2023-04-08T05:46:04;17.47;;;14.63;;
14377;SDS011;7272;53.668;9.578;2023-04-08T05:49:06;18.67;;;13.30;;
14377;SDS011;7272;53.668;9.578;2023-04-08T05:52:08;18.47;;;14.40;;
14377;SDS011;7272;53.668;9.578;2023-04-08T05:55:10;20.23;;;15.63;;
14377;SDS011;7272;53.668;9.578;2023-04-08T05:58:13;25.47;;;17.17;;
14377;SDS011;7272;53.668;9.578;2023-04-08T06:01:17;20.20;;;16.30;;
14377;SDS011;7272;53.668;9.578;2023-04-08T06:04:19;19.77;;;15.17;;
14377;SDS011;7272;53.668;9.578;2023-04-08T06:07:21;17.13;;;13.33;;
14377;SDS011;7272;53.668;9.578;2023-04-08T06:10:23;18.53;;;15.97;;
14377;SDS011;7272;53.668;9.578;2023-04-08T06:13:25;19.27;;;15.77;;
14377;SDS011;7272;53.668;9.578;2023-04-08T06:16:28;21.30;;;17.67;;
14377;SDS011;7272;53.668;9.578;2023-04-08T06:19:30;18.43;;;14.53;;
14377;SDS011;7272;53.668;9.578;2023-04-08T06:22:32;18.33;;;16.03;;
14377;SDS011;7272;53.668;9.578;2023-04-08T06:25:34;17.57;;;15.27;;
14377;SDS011;7272;53.668;9.578;2023-04-08T06:28:36;19.93;;;15.20;;
14377;SDS011;7272;53.668;9.578;2023-04-08T06:31:39;21.93;;;16.33;;
14377;SDS011;7272;53.668;9.578;2023-04-08T06:34:41;19.70;;;15.80;;
14377;SDS011;7272;53.668;9.578;2023-04-08T06:37:45;22.48;;;20.17;;
14377;SDS011;7272;53.668;9.578;2023-04-08T06:40:47;23.80;;;20.53;;
14377;SDS011;7272;53.668;9.578;2023-04-08T06:43:49;21.87;;;18.13;;
14377;SDS011;7272;53.668;9.578;2023-04-08T06:46:52;19.70;;;15.70;;
14377;SDS011;7272;53.668;9.578;2023-04-08T06:49:55;22.83;;;17.57;;
14377;SDS011;7272;53.668;9.578;2023-04-08T06:52:57;21.40;;;16.53;;
14377;SDS011;7272;53.668;9.578;2023-04-08T06:55:59;21.10;;;16.47;;
14377;SDS011;7272;53.668;9.578;2023-04-08T06:59:01;18.63;;;15.67;;
14377;SDS011;7272;53.668;9.578;2023-04-08T07:02:05;17.27;;;14.63;;
14377;SDS011;7272;53.668;9.578;2023-04-08T07:05:07;16.23;;;12.57;;
14377;SDS011;7272;53.668;9.578;2023-04-08T07:08:09;16.60;;;14.03;;
14377;SDS011;7272;53.668;9.578;2023-04-08T07:11:11;14.13;;;11.77;;
14377;SDS011;7272;53.668;9.578;2023-04-08T07:14:13;15.27;;;12.17;;
14377;SDS011;7272;53.668;9.578;2023-04-08T07:17:16;15.17;;;11.60;;
14377;SDS011;7272;53.668;9.578;2023-04-08T07:20:18;13.87;;;11.97;;
14377;SDS011;7272;53.668;9.578;2023-04-08T07:23:21;12.00;;;10.80;;
14377;SDS011;7272;53.668;9.578;2023-04-08T07:26:23;14.83;;;12.40;;
14377;SDS011;7272;53.668;9.578;2023-04-08T07:29:25;13.70;;;12.30;;
14377;SDS011;7272;53.668;9.578;2023-04-08T07:32:28;16.20;;;13.27;;
14377;SDS011;7272;53.668;9.578;2023-04-08T07:35:32;18.10;;;14.40;;
14377;SDS011;7272;53.668;9.578;2023-04-08T07:38:34;17.47;;;13.40;;
14377;SDS011;7272;53.668;9.578;2023-04-08T07:41:36;19.43;;;15.50;;
14377;SDS011;7272;53.668;9.578;2023-04-08T07:44:38;15.70;;;13.73;;
14377;SDS011;7272;53.668;9.578;2023-04-08T07:47:41;18.97;;;15.10;;
14377;SDS011;7272;53.668;9.578;2023-04-08T07:50:44;25.50;;;17.30;;
14377;SDS011;7272;53.668;9.578;2023-04-08T07:53:46;19.43;;;16.13;;
14377;SDS011;7272;53.668;9.578;2023-04-08T07:56:48;22.05;;;19.83;;
14377;SDS011;7272;53.668;9.578;2023-04-08T07:59:50;20.27;;;16.57;;
14377;SDS011;7272;53.668;9.578;2023-04-08T08:02:54;16.97;;;14.90;;
14377;SDS011;7272;53.668;9.578;2023-04-08T08:05:57;14.33;;;12.80;;
14377;SDS011;7272;53.668;9.578;2023-04-08T08:08:59;14.30;;;11.93;;
14377;SDS011;7272;53.668;9.578;2023-04-08T08:12:01;14.17;;;12.77;;
14377;SDS011;7272;53.668;9.578;2023-04-08T08:15:04;16.47;;;14.70;;
14377;SDS011;7272;53.668;9.578;2023-04-08T08:18:08;20.27;;;15.63;;
14377;SDS011;7272;53.668;9.578;2023-04-08T08:21:10;15.00;;;13.47;;
14377;SDS011;7272;53.668;9.578;2023-04-08T08:24:12;14.13;;;12.53;;
14377;SDS011;7272;53.668;9.578;2023-04-08T08:27:13;17.33;;;15.10;;
14377;SDS011;7272;53.668;9.578;2023-04-08T08:30:15;16.60;;;13.37;;
14377;SDS011;7272;53.668;9.578;2023-04-08T08:33:21;16.30;;;14.60;;
14377;SDS011;7272;53.668;9.578;2023-04-08T08:36:23;15.97;;;13.83;;
14377;SDS011;7272;53.668;9.578;2023-04-08T08:39:26;13.17;;;11.77;;
14377;SDS011;7272;53.668;9.578;2023-04-08T08:42:28;13.30;;;11.37;;
14377;SDS011;7272;53.668;9.578;2023-04-08T08:45:31;13.47;;;11.63;;
14377;SDS011;7272;53.668;9.578;2023-04-08T08:48:35;12.43;;;11.13;;
14377;SDS011;7272;53.668;9.578;2023-04-08T08:51:38;15.03;;;12.60;;
14377;SDS011;7272;53.668;9.578;2023-04-08T08:54:40;15.10;;;12.10;;
14377;SDS011;7272;53.668;9.578;2023-04-08T08:57:43;13.20;;;11.63;;
14377;SDS011;7272;53.668;9.578;2023-04-08T09:00:45;12.67;;;11.37;;
14377;SDS011;7272;53.668;9.578;2023-04-08T09:03:49;14.63;;;12.57;;
14377;SDS011;7272;53.668;9.578;2023-04-08T09:07:08;14.40;;;12.53;;
14377;SDS011;7272;53.668;9.578;2023-04-08T09:10:10;16.55;;;14.95;;
14377;SDS011;7272;53.668;9.578;2023-04-08T09:13:12;15.87;;;13.77;;
14377;SDS011;7272;53.668;9.578;2023-04-08T09:16:15;17.02;;;15.50;;
14377;SDS011;7272;53.668;9.578;2023-04-08T09:19:19;14.30;;;12.47;;
14377;SDS011;7272;53.668;9.578;2023-04-08T09:22:21;14.57;;;13.03;;
14377;SDS011;7272;53.668;9.578;2023-04-08T09:25:23;14.13;;;12.43;;
14377;SDS011;7272;53.668;9.578;2023-04-08T09:28:26;14.50;;;13.10;;
14377;SDS011;7272;53.668;9.578;2023-04-08T09:31:28;14.33;;;12.83;;
14377;SDS011;7272;53.668;9.578;2023-04-08T09:34:32;14.43;;;12.27;;
14377;SDS011;7272;53.668;9.578;2023-04-08T09:37:34;15.47;;;13.87;;
14377;SDS011;7272;53.668;9.578;2023-04-08T09:40:37;16.90;;;14.63;;
14377;SDS011;7272;53.668;9.578;2023-04-08T09:43:41;15.67;;;14.07;;
14377;SDS011;7272;53.668;9.578;2023-04-08T09:46:52;15.70;;;13.97;;
14377;SDS011;7272;53.668;9.578;2023-04-08T09:50:01;18.50;;;16.57;;
14377;SDS011;7272;53.668;9.578;2023-04-08T09:53:08;18.30;;;16.37;;
14377;SDS011;7272;53.668;9.578;2023-04-08T09:56:14;17.33;;;15.63;;
14377;SDS011;7272;53.668;9.578;2023-04-08T09:59:20;19.03;;;15.43;;
14377;SDS011;7272;53.668;9.578;2023-04-08T10:02:28;20.50;;;16.73;;
14377;SDS011;7272;53.668;9.578;2023-04-08T10:05:36;19.47;;;15.63;;
14377;SDS011;7272;53.668;9.578;2023-04-08T10:08:39;18.33;;;16.43;;
14377;SDS011;7272;53.668;9.578;2023-04-08T10:11:41;18.43;;;16.53;;
14377;SDS011;7272;53.668;9.578;2023-04-08T10:14:58;15.10;;;12.53;;
14377;SDS011;7272;53.668;9.578;2023-04-08T10:18:30;17.92;;;16.20;;
14377;SDS011;7272;53.668;9.578;2023-04-08T10:21:38;15.80;;;14.03;;
14377;SDS011;7272;53.668;9.578;2023-04-08T10:24:45;17.30;;;15.63;;
14377;SDS011;7272;53.668;9.578;2023-04-08T10:28:24;16.53;;;14.90;;
14377;SDS011;7272;53.668;9.578;2023-04-08T10:31:27;14.50;;;13.00;;
14377;SDS011;7272;53.668;9.578;2023-04-08T10:34:29;15.23;;;13.63;;
14377;SDS011;7272;53.668;9.578;2023-04-08T10:37:30;15.07;;;13.50;;
14377;SDS011;7272;53.668;9.578;2023-04-08T10:40:34;14.20;;;12.77;;
14377;SDS011;7272;53.668;9.578;2023-04-08T10:43:39;13.93;;;12.43;;
14377;SDS011;7272;53.668;9.578;2023-04-08T10:46:41;17.03;;;15.23;;
14377;SDS011;7272;53.668;9.578;2023-04-08T10:49:43;17.87;;;16.07;;
14377;SDS011;7272;53.668;9.578;2023-04-08T10:52:46;16.20;;;13.07;;
14377;SDS011;7272;53.668;9.578;2023-04-08T10:55:49;16.57;;;14.87;;
14377;SDS011;7272;53.668;9.578;2023-04-08T10:58:56;15.67;;;14.03;;
14377;SDS011;7272;53.668;9.578;2023-04-08T11:01:59;15.07;;;13.47;;
14377;SDS011;7272;53.668;9.578;2023-04-08T11:05:01;15.70;;;14.17;;
14377;SDS011;7272;53.668;9.578;2023-04-08T11:08:03;18.13;;;16.23;;
14377;SDS011;7272;53.668;9.578;2023-04-08T11:11:06;17.27;;;15.53;;
14377;SDS011;7272;53.668;9.578;2023-04-08T11:14:11;16.10;;;14.50;;
14377;SDS011;7272;53.668;9.578;2023-04-08T11:17:13;17.13;;;15.03;;
14377;SDS011;7272;53.668;9.578;2023-04-08T11:20:17;16.90;;;15.17;;
14377;SDS011;7272;53.668;9.578;2023-04-08T11:23:19;27.17;;;24.58;;
14377;SDS011;7272;53.668;9.578;2023-04-08T11:26:22;24.90;;;22.30;;
14377;SDS011;7272;53.668;9.578;2023-04-08T11:29:27;22.20;;;19.90;;
14377;SDS011;7272;53.668;9.578;2023-04-08T11:32:30;20.10;;;18.03;;
14377;SDS011;7272;53.668;9.578;2023-04-08T11:35:32;15.57;;;13.97;;
14377;SDS011;7272;53.668;9.578;2023-04-08T11:38:37;15.73;;;14.20;;
14377;SDS011;7272;53.668;9.578;2023-04-08T11:41:40;13.60;;;12.13;;
14377;SDS011;7272;53.668;9.578;2023-04-08T11:44:43;15.20;;;13.60;;
14377;SDS011;7272;53.668;9.578;2023-04-08T11:47:46;15.13;;;13.60;;
14377;SDS011;7272;53.668;9.578;2023-04-08T11:51:00;14.70;;;13.20;;
14377;SDS011;7272;53.668;9.578;2023-04-08T11:54:03;14.53;;;13.23;;
14377;SDS011;7272;53.668;9.578;2023-04-08T11:57:07;15.77;;;14.10;;
14377;SDS011;7272;53.668;9.578;2023-04-08T12:00:11;17.30;;;15.70;;
14377;SDS011;7272;53.668;9.578;2023-04-08T12:03:14;15.13;;;13.80;;
14377;SDS011;7272;53.668;9.578;2023-04-08T12:06:16;14.27;;;12.97;;
14377;SDS011;7272;53.668;9.578;2023-04-08T12:09:19;17.80;;;14.17;;
14377;SDS011;7272;53.668;9.578;2023-04-08T12:12:20;14.40;;;12.83;;
14377;SDS011;7272;53.668;9.578;2023-04-08T12:15:24;16.75;;;15.35;;
14377;SDS011;7272;53.668;9.578;2023-04-08T12:18:26;15.37;;;13.87;;
14377;SDS011;7272;53.668;9.578;2023-04-08T12:21:28;17.00;;;15.30;;
14377;SDS011;7272;53.668;9.578;2023-04-08T12:24:31;14.20;;;12.87;;
14377;SDS011;7272;53.668;9.578;2023-04-08T12:27:33;16.67;;;14.97;;
14377;SDS011;7272;53.668;9.578;2023-04-08T12:30:37;13.77;;;12.47;;
14377;SDS011;7272;53.668;9.578;2023-04-08T12:33:39;13.20;;;12.00;;
14377;SDS011;7272;53.668;9.578;2023-04-08T12:36:40;14.03;;;12.63;;
14377;SDS011;7272;53.668;9.578;2023-04-08T12:39:44;12.53;;;11.23;;
14377;SDS011;7272;53.668;9.578;2023-04-08T12:42:46;12.23;;;11.03;;
14377;SDS011;7272;53.668;9.578;2023-04-08T12:45:50;14.17;;;12.77;;
14377;SDS011;7272;53.668;9.578;2023-04-08T12:48:52;13.50;;;12.20;;
14377;SDS011;7272;53.668;9.578;2023-04-08T12:51:54;14.30;;;12.87;;
14377;SDS011;7272;53.668;9.578;2023-04-08T12:54:56;12.90;;;11.47;;
14377;SDS011;7272;53.668;9.578;2023-04-08T12:57:58;14.30;;;12.97;;
14377;SDS011;7272;53.668;9.578;2023-04-08T13:01:01;16.52;;;14.98;;
14377;SDS011;7272;53.668;9.578;2023-04-08T13:04:03;12.33;;;11.13;;
14377;SDS011;7272;53.668;9.578;2023-04-08T13:07:05;12.03;;;10.97;;
14377;SDS011;7272;53.668;9.578;2023-04-08T13:10:07;13.50;;;12.07;;
14377;SDS011;7272;53.668;9.578;2023-04-08T13:13:10;12.63;;;11.47;;
14377;SDS011;7272;53.668;9.578;2023-04-08T13:16:14;12.57;;;11.40;;
14377;SDS011;7272;53.668;9.578;2023-04-08T13:19:17;13.33;;;12.10;;
14377;SDS011;7272;53.668;9.578;2023-04-08T13:22:18;13.93;;;12.70;;
14377;SDS011;7272;53.668;9.578;2023-04-08T13:25:20;14.83;;;13.43;;
14377;SDS011;7272;53.668;9.578;2023-04-08T13:28:22;13.33;;;11.93;;
14377;SDS011;7272;53.668;9.578;2023-04-08T13:31:26;14.97;;;12.03;;
14377;SDS011;7272;53.668;9.578;2023-04-08T13:34:27;15.13;;;13.63;;
14377;SDS011;7272;53.668;9.578;2023-04-08T13:37:29;15.47;;;14.07;;
14377;SDS011;7272;53.668;9.578;2023-04-08T13:40:31;14.43;;;13.03;;
14377;SDS011;7272;53.668;9.578;2023-04-08T13:43:33;13.53;;;12.30;;
14377;SDS011;7272;53.668;9.578;2023-04-08T13:46:36;16.48;;;15.00;;
14377;SDS011;7272;53.668;9.578;2023-04-08T13:49:38;16.23;;;14.73;;
14377;SDS011;7272;53.668;9.578;2023-04-08T13:52:40;14.80;;;13.53;;
14377;SDS011;7272;53.668;9.578;2023-04-08T13:55:42;17.77;;;16.03;;
14377;SDS011;7272;53.668;9.578;2023-04-08T13:58:45;13.97;;;12.33;;
14377;SDS011;7272;53.668;9.578;2023-04-08T14:01:48;14.03;;;12.50;;
14377;SDS011;7272;53.668;9.578;2023-04-08T14:04:52;12.70;;;11.37;;
14377;SDS011;7272;53.668;9.578;2023-04-08T14:07:54;13.53;;;12.23;;
14377;SDS011;7272;53.668;9.578;2023-04-08T14:10:56;14.63;;;13.23;;
14377;SDS011;7272;53.668;9.578;2023-04-08T14:13:58;15.00;;;13.70;;
14377;SDS011;7272;53.668;9.578;2023-04-08T14:17:01;14.37;;;13.00;;
14377;SDS011;7272;53.668;9.578;2023-04-08T14:20:04;12.97;;;11.67;;
14377;SDS011;7272;53.668;9.578;2023-04-08T14:23:07;12.07;;;10.63;;
14377;SDS011;7272;53.668;9.578;2023-04-08T14:26:09;12.53;;;11.53;;
14377;SDS011;7272;53.668;9.578;2023-04-08T14:29:11;11.80;;;10.70;;
14377;SDS011;7272;53.668;9.578;2023-04-08T14:32:14;18.00;;;16.40;;
14377;SDS011;7272;53.668;9.578;2023-04-08T14:35:16;15.52;;;14.13;;
14377;SDS011;7272;53.668;9.578;2023-04-08T14:38:18;16.40;;;14.67;;
14377;SDS011;7272;53.668;9.578;2023-04-08T14:41:20;16.17;;;14.67;;
14377;SDS011;7272;53.668;9.578;2023-04-08T14:44:22;20.03;;;18.00;;
14377;SDS011;7272;53.668;9.578;2023-04-08T14:47:25;17.77;;;16.17;;
14377;SDS011;7272;53.668;9.578;2023-04-08T14:50:27;16.63;;;14.97;;
14377;SDS011;7272;53.668;9.578;2023-04-08T14:53:30;17.87;;;16.13;;
14377;SDS011;7272;53.668;9.578;2023-04-08T14:56:32;14.93;;;13.63;;
14377;SDS011;7272;53.668;9.578;2023-04-08T14:59:35;14.10;;;12.70;;
14377;SDS011;7272;53.668;9.578;2023-04-08T15:02:38;16.17;;;14.67;;
14377;SDS011;7272;53.668;9.578;2023-04-08T15:05:40;17.30;;;15.63;;
14377;SDS011;7272;53.668;9.578;2023-04-08T15:08:44;17.00;;;15.07;;
14377;SDS011;7272;53.668;9.578;2023-04-08T15:11:46;15.07;;;13.77;;
14377;SDS011;7272;53.668;9.578;2023-04-08T15:14:47;15.33;;;13.73;;
14377;SDS011;7272;53.668;9.578;2023-04-08T15:17:51;18.30;;;16.73;;
14377;SDS011;7272;53.668;9.578;2023-04-08T15:20:53;20.95;;;19.25;;
14377;SDS011;7272;53.668;9.578;2023-04-08T15:23:55;15.37;;;14.07;;
14377;SDS011;7272;53.668;9.578;2023-04-08T15:26:57;14.83;;;13.53;;
14377;SDS011;7272;53.668;9.578;2023-04-08T15:30:00;15.60;;;14.10;;
14377;SDS011;7272;53.668;9.578;2023-04-08T15:33:03;16.50;;;15.10;;
14377;SDS011;7272;53.668;9.578;2023-04-08T15:36:06;16.07;;;14.47;;
14377;SDS011;7272;53.668;9.578;2023-04-08T15:39:08;16.00;;;14.40;;
14377;SDS011;7272;53.668;9.578;2023-04-08T15:42:09;16.33;;;14.87;;
14377;SDS011;7272;53.668;9.578;2023-04-08T15:45:11;17.63;;;15.83;;
14377;SDS011;7272;53.668;9.578;2023-04-08T15:48:15;18.60;;;16.77;;
14377;SDS011;7272;53.668;9.578;2023-04-08T15:51:18;17.33;;;15.53;;
14377;SDS011;7272;53.668;9.578;2023-04-08T15:54:19;15.43;;;13.83;;
14377;SDS011;7272;53.668;9.578;2023-04-08T15:57:21;22.13;;;19.93;;
14377;SDS011;7272;53.668;9.578;2023-04-08T16:00:26;26.80;;;24.00;;
14377;SDS011;7272;53.668;9.578;2023-04-08T16:03:29;38.10;;;34.30;;
14377;SDS011;7272;53.668;9.578;2023-04-08T16:06:31;27.25;;;24.85;;
14377;SDS011;7272;53.668;9.578;2023-04-08T16:09:33;16.00;;;14.40;;
14377;SDS011;7272;53.668;9.578;2023-04-08T16:12:35;15.23;;;13.67;;
14377;SDS011;7272;53.668;9.578;2023-04-08T16:15:37;13.60;;;12.47;;
14377;SDS011;7272;53.668;9.578;2023-04-08T16:18:40;16.37;;;14.70;;
14377;SDS011;7272;53.668;9.578;2023-04-08T16:21:43;15.90;;;14.40;;
14377;SDS011;7272;53.668;9.578;2023-04-08T16:24:45;19.40;;;17.40;;
14377;SDS011;7272;53.668;9.578;2023-04-08T16:27:47;16.33;;;14.80;;
14377;SDS011;7272;53.668;9.578;2023-04-08T16:30:49;15.50;;;14.03;;
14377;SDS011;7272;53.668;9.578;2023-04-08T16:33:52;14.50;;;13.17;;
14377;SDS011;7272;53.668;9.578;2023-04-08T16:36:54;16.03;;;14.60;;
14377;SDS011;7272;53.668;9.578;2023-04-08T16:39:56;15.93;;;14.43;;
14377;SDS011;7272;53.668;9.578;2023-04-08T16:42:58;15.00;;;13.70;;
14377;SDS011;7272;53.668;9.578;2023-04-08T16:46:07;18.30;;;16.60;;
14377;SDS011;7272;53.668;9.578;2023-04-08T16:49:11;20.50;;;18.00;;
14377;SDS011;7272;53.668;9.578;2023-04-08T16:52:13;22.63;;;20.63;;
14377;SDS011;7272;53.668;9.578;2023-04-08T16:55:15;18.67;;;16.87;;
14377;SDS011;7272;53.668;9.578;2023-04-08T16:58:17;20.17;;;18.10;;
14377;SDS011;7272;53.668;9.578;2023-04-08T17:01:19;19.83;;;17.97;;
14377;SDS011;7272;53.668;9.578;2023-04-08T17:04:22;27.87;;;24.50;;
14377;SDS011;7272;53.668;9.578;2023-04-08T17:07:24;25.00;;;22.50;;
14377;SDS011;7272;53.668;9.578;2023-04-08T17:10:27;23.43;;;21.13;;
14377;SDS011;7272;53.668;9.578;2023-04-08T17:13:29;24.13;;;21.67;;
14377;SDS011;7272;53.668;9.578;2023-04-08T17:16:31;24.10;;;21.63;;
14377;SDS011;7272;53.668;9.578;2023-04-08T17:19:34;29.07;;;26.17;;
14377;SDS011;7272;53.668;9.578;2023-04-08T17:22:37;26.00;;;23.40;;
14377;SDS011;7272;53.668;9.578;2023-04-08T17:25:39;22.43;;;20.33;;
14377;SDS011;7272;53.668;9.578;2023-04-08T17:28:41;22.80;;;20.57;;
14377;SDS011;7272;53.668;9.578;2023-04-08T17:31:43;22.27;;;19.90;;
14377;SDS011;7272;53.668;9.578;2023-04-08T17:34:47;25.30;;;23.10;;
14377;SDS011;7272;53.668;9.578;2023-04-08T17:37:48;27.75;;;25.17;;
14377;SDS011;7272;53.668;9.578;2023-04-08T17:40:50;24.27;;;22.00;;
14377;SDS011;7272;53.668;9.578;2023-04-08T17:43:52;23.17;;;20.80;;
14377;SDS011;7272;53.668;9.578;2023-04-08T17:46:54;20.10;;;18.23;;
14377;SDS011;7272;53.668;9.578;2023-04-08T17:49:57;18.37;;;16.67;;
14377;SDS011;7272;53.668;9.578;2023-04-08T17:52:59;19.97;;;17.97;;
14377;SDS011;7272;53.668;9.578;2023-04-08T17:56:01;22.80;;;20.70;;
14377;SDS011;7272;53.668;9.578;2023-04-08T17:59:04;22.57;;;20.37;;
14377;SDS011;7272;53.668;9.578;2023-04-08T18:02:07;23.77;;;21.40;;
14377;SDS011;7272;53.668;9.578;2023-04-08T18:05:10;21.37;;;19.27;;
14377;SDS011;7272;53.668;9.578;2023-04-08T18:08:12;24.03;;;21.63;;